sensor_id;sensor_type;location;lat;lon;timestamp;P1;durP1;ratioP1;P2;durP2;ratioP2
67712;SDS011;67640;55.784;49.138;2023-05-14T00:03:26;8.85;;;3.83;;
67712;SDS011;67640;55.784;49.138;2023-05-14T00:08:31;6.73;;;2.70;;
67712;SDS011;67640;55.784;49.138;2023-05-14T00:13:36;6.37;;;2.60;;
67712;SDS011;67640;55.784;49.138;2023-05-14T00:18:41;7.20;;;2.75;;
67712;SDS011;67640;55.784;49.138;2023-05-14T00:24:00;6.40;;;2.70;;
67712;SDS011;67640;55.784;49.138;2023-05-14T00:29:06;6.78;;;2.85;;
67712;SDS011;67640;55.784;49.138;2023-05-14T00:34:11;8.60;;;2.80;;
67712;SDS011;67640;55.784;49.138;2023-05-14T00:39:16;7.95;;;2.60;;
67712;SDS011;67640;55.784;49.138;2023-05-14T00:44:21;4.75;;;2.60;;
67712;SDS011;67640;55.784;49.138;2023-05-14T00:49:40;6.80;;;2.20;;
67712;SDS011;67640;55.784;49.138;2023-05-14T00:54:46;6.05;;;2.77;;
67712;SDS011;67640;55.784;49.138;2023-05-14T00:59:52;4.17;;;2.23;;
67712;SDS011;67640;55.784;49.138;2023-05-14T01:04:57;5.10;;;2.30;;
67712;SDS011;67640;55.784;49.138;2023-05-14T01:15:41;7.10;;;2.40;;
67712;SDS011;67640;55.784;49.138;2023-05-14T01:21:01;7.63;;;2.20;;
67712;SDS011;67640;55.784;49.138;2023-05-14T01:26:06;5.08;;;2.42;;
67712;SDS011;67640;55.784;49.138;2023-05-14T01:31:30;6.20;;;2.22;;
67712;SDS011;67640;55.784;49.138;2023-05-14T01:36:36;5.50;;;2.27;;
67712;SDS011;67640;55.784;49.138;2023-05-14T01:41:43;7.30;;;2.75;;
67712;SDS011;67640;55.784;49.138;2023-05-14T01:47:03;6.58;;;2.40;;
67712;SDS011;67640;55.784;49.138;2023-05-14T01:52:09;4.87;;;2.30;;
67712;SDS011;67640;55.784;49.138;2023-05-14T01:57:15;8.33;;;2.90;;
67712;SDS011;67640;55.784;49.138;2023-05-14T02:02:46;7.00;;;2.45;;
67712;SDS011;67640;55.784;49.138;2023-05-14T02:07:51;5.40;;;2.30;;
67712;SDS011;67640;55.784;49.138;2023-05-14T02:12:57;4.55;;;2.47;;
67712;SDS011;67640;55.784;49.138;2023-05-14T02:18:29;5.05;;;2.80;;
67712;SDS011;67640;55.784;49.138;2023-05-14T02:23:34;5.15;;;3.00;;
67712;SDS011;67640;55.784;49.138;2023-05-14T02:28:39;4.83;;;2.60;;
67712;SDS011;67640;55.784;49.138;2023-05-14T02:33:59;7.28;;;3.20;;
67712;SDS011;67640;55.784;49.138;2023-05-14T02:39:28;5.55;;;2.67;;
67712;SDS011;67640;55.784;49.138;2023-05-14T02:44:34;5.63;;;2.80;;
67712;SDS011;67640;55.784;49.138;2023-05-14T02:50:01;5.43;;;2.57;;
67712;SDS011;67640;55.784;49.138;2023-05-14T02:55:09;6.33;;;2.95;;
67712;SDS011;67640;55.784;49.138;2023-05-14T03:00:14;6.63;;;2.60;;
67712;SDS011;67640;55.784;49.138;2023-05-14T03:05:33;8.47;;;2.70;;
67712;SDS011;67640;55.784;49.138;2023-05-14T03:10:39;6.47;;;2.90;;
67712;SDS011;67640;55.784;49.138;2023-05-14T03:15:45;5.50;;;2.90;;
67712;SDS011;67640;55.784;49.138;2023-05-14T03:20:50;6.22;;;2.67;;
67712;SDS011;67640;55.784;49.138;2023-05-14T03:26:09;6.37;;;2.77;;
67712;SDS011;67640;55.784;49.138;2023-05-14T03:31:29;5.03;;;2.95;;
67712;SDS011;67640;55.784;49.138;2023-05-14T03:36:34;5.73;;;3.03;;
67712;SDS011;67640;55.784;49.138;2023-05-14T03:41:53;5.05;;;2.60;;
67712;SDS011;67640;55.784;49.138;2023-05-14T03:47:12;5.40;;;2.80;;
67712;SDS011;67640;55.784;49.138;2023-05-14T03:52:45;7.27;;;2.63;;
67712;SDS011;67640;55.784;49.138;2023-05-14T03:57:50;9.05;;;3.00;;
67712;SDS011;67640;55.784;49.138;2023-05-14T04:03:12;6.22;;;3.17;;
67712;SDS011;67640;55.784;49.138;2023-05-14T04:08:18;5.70;;;3.07;;
67712;SDS011;67640;55.784;49.138;2023-05-14T04:13:42;5.70;;;2.83;;
67712;SDS011;67640;55.784;49.138;2023-05-14T04:18:47;6.87;;;3.02;;
67712;SDS011;67640;55.784;49.138;2023-05-14T04:24:18;6.70;;;3.10;;
67712;SDS011;67640;55.784;49.138;2023-05-14T04:29:24;9.03;;;3.30;;
67712;SDS011;67640;55.784;49.138;2023-05-14T04:34:29;6.70;;;3.20;;
67712;SDS011;67640;55.784;49.138;2023-05-14T04:39:53;7.08;;;3.30;;
67712;SDS011;67640;55.784;49.138;2023-05-14T04:44:58;6.40;;;3.40;;
67712;SDS011;67640;55.784;49.138;2023-05-14T04:50:04;7.78;;;3.83;;
67712;SDS011;67640;55.784;49.138;2023-05-14T04:55:31;9.53;;;4.47;;
67712;SDS011;67640;55.784;49.138;2023-05-14T05:00:36;9.63;;;3.95;;
67712;SDS011;67640;55.784;49.138;2023-05-14T05:05:42;10.67;;;3.77;;
67712;SDS011;67640;55.784;49.138;2023-05-14T05:11:03;9.23;;;3.85;;
67712;SDS011;67640;55.784;49.138;2023-05-14T05:16:08;9.98;;;3.95;;
67712;SDS011;67640;55.784;49.138;2023-05-14T05:21:28;7.17;;;3.55;;
67712;SDS011;67640;55.784;49.138;2023-05-14T05:26:33;8.30;;;4.00;;
67712;SDS011;67640;55.784;49.138;2023-05-14T05:31:53;9.80;;;3.37;;
67712;SDS011;67640;55.784;49.138;2023-05-14T05:36:58;7.35;;;3.67;;
67712;SDS011;67640;55.784;49.138;2023-05-14T05:42:32;7.03;;;3.52;;
67712;SDS011;67640;55.784;49.138;2023-05-14T05:47:37;8.43;;;3.30;;
67712;SDS011;67640;55.784;49.138;2023-05-14T05:52:56;7.08;;;3.65;;
67712;SDS011;67640;55.784;49.138;2023-05-14T05:58:15;5.60;;;3.10;;
67712;SDS011;67640;55.784;49.138;2023-05-14T06:03:34;11.57;;;3.70;;
67712;SDS011;67640;55.784;49.138;2023-05-14T06:08:53;7.00;;;3.58;;
67712;SDS011;67640;55.784;49.138;2023-05-14T06:14:14;7.53;;;4.07;;
67712;SDS011;67640;55.784;49.138;2023-05-14T06:19:20;6.05;;;3.50;;
67712;SDS011;67640;55.784;49.138;2023-05-14T06:24:25;9.77;;;3.77;;
67712;SDS011;67640;55.784;49.138;2023-05-14T06:29:30;7.97;;;3.67;;
67712;SDS011;67640;55.784;49.138;2023-05-14T06:34:49;8.78;;;3.67;;
67712;SDS011;67640;55.784;49.138;2023-05-14T06:40:11;7.93;;;3.03;;
67712;SDS011;67640;55.784;49.138;2023-05-14T06:45:19;12.05;;;3.08;;
67712;SDS011;67640;55.784;49.138;2023-05-14T06:50:34;6.57;;;3.20;;
67712;SDS011;67640;55.784;49.138;2023-05-14T06:55:38;5.50;;;2.67;;
67712;SDS011;67640;55.784;49.138;2023-05-14T07:00:58;8.18;;;3.10;;
67712;SDS011;67640;55.784;49.138;2023-05-14T07:06:04;21.27;;;3.40;;
67712;SDS011;67640;55.784;49.138;2023-05-14T07:11:24;8.55;;;3.10;;
67712;SDS011;67640;55.784;49.138;2023-05-14T07:16:28;6.53;;;2.90;;
67712;SDS011;67640;55.784;49.138;2023-05-14T07:21:34;5.25;;;2.52;;
67712;SDS011;67640;55.784;49.138;2023-05-14T07:26:49;5.78;;;2.10;;
67712;SDS011;67640;55.784;49.138;2023-05-14T07:32:07;7.50;;;2.20;;
67712;SDS011;67640;55.784;49.138;2023-05-14T07:37:12;6.42;;;2.20;;
67712;SDS011;67640;55.784;49.138;2023-05-14T07:42:31;4.70;;;2.45;;
67712;SDS011;67640;55.784;49.138;2023-05-14T07:47:51;4.93;;;2.60;;
67712;SDS011;67640;55.784;49.138;2023-05-14T07:53:10;6.83;;;3.08;;
67712;SDS011;67640;55.784;49.138;2023-05-14T07:58:29;6.90;;;3.17;;
67712;SDS011;67640;55.784;49.138;2023-05-14T08:03:34;5.25;;;2.52;;
67712;SDS011;67640;55.784;49.138;2023-05-14T08:08:39;4.95;;;2.12;;
67712;SDS011;67640;55.784;49.138;2023-05-14T08:13:44;5.67;;;2.20;;
67712;SDS011;67640;55.784;49.138;2023-05-14T08:19:04;4.77;;;2.03;;
67712;SDS011;67640;55.784;49.138;2023-05-14T08:24:09;4.67;;;2.52;;
67712;SDS011;67640;55.784;49.138;2023-05-14T08:29:15;5.60;;;2.40;;
67712;SDS011;67640;55.784;49.138;2023-05-14T08:34:34;6.83;;;3.67;;
67712;SDS011;67640;55.784;49.138;2023-05-14T08:39:53;5.72;;;3.00;;
67712;SDS011;67640;55.784;49.138;2023-05-14T08:50:37;4.60;;;2.55;;
67712;SDS011;67640;55.784;49.138;2023-05-14T08:56:01;6.43;;;3.50;;
67712;SDS011;67640;55.784;49.138;2023-05-14T09:01:08;9.85;;;2.90;;
67712;SDS011;67640;55.784;49.138;2023-05-14T09:06:13;12.10;;;4.60;;
67712;SDS011;67640;55.784;49.138;2023-05-14T09:11:32;8.27;;;3.40;;
67712;SDS011;67640;55.784;49.138;2023-05-14T09:16:37;10.20;;;4.15;;
67712;SDS011;67640;55.784;49.138;2023-05-14T09:21:57;7.20;;;3.20;;
67712;SDS011;67640;55.784;49.138;2023-05-14T09:32:55;10.95;;;3.50;;
67712;SDS011;67640;55.784;49.138;2023-05-14T09:38:14;7.63;;;3.60;;
67712;SDS011;67640;55.784;49.138;2023-05-14T09:43:20;19.55;;;4.78;;
67712;SDS011;67640;55.784;49.138;2023-05-14T09:48:25;16.95;;;4.40;;
67712;SDS011;67640;55.784;49.138;2023-05-14T09:53:44;9.23;;;4.15;;
67712;SDS011;67640;55.784;49.138;2023-05-14T09:58:49;8.30;;;4.20;;
67712;SDS011;67640;55.784;49.138;2023-05-14T10:04:08;9.50;;;4.40;;
67712;SDS011;67640;55.784;49.138;2023-05-14T10:09:28;10.27;;;3.53;;
67712;SDS011;67640;55.784;49.138;2023-05-14T10:14:48;6.83;;;3.12;;
67712;SDS011;67640;55.784;49.138;2023-05-14T10:20:08;7.58;;;3.10;;
67712;SDS011;67640;55.784;49.138;2023-05-14T10:25:13;6.13;;;1.87;;
67712;SDS011;67640;55.784;49.138;2023-05-14T10:30:20;4.92;;;1.70;;
67712;SDS011;67640;55.784;49.138;2023-05-14T10:35:25;5.27;;;1.60;;
67712;SDS011;67640;55.784;49.138;2023-05-14T10:40:30;5.90;;;1.95;;
67712;SDS011;67640;55.784;49.138;2023-05-14T10:45:50;6.25;;;1.87;;
67712;SDS011;67640;55.784;49.138;2023-05-14T10:51:09;4.40;;;1.60;;
67712;SDS011;67640;55.784;49.138;2023-05-14T10:56:15;3.55;;;1.70;;
67712;SDS011;67640;55.784;49.138;2023-05-14T11:01:22;6.97;;;1.80;;
67712;SDS011;67640;55.784;49.138;2023-05-14T11:06:28;6.25;;;2.00;;
67712;SDS011;67640;55.784;49.138;2023-05-14T11:11:48;3.77;;;1.60;;
67712;SDS011;67640;55.784;49.138;2023-05-14T11:17:07;6.10;;;2.40;;
67712;SDS011;67640;55.784;49.138;2023-05-14T11:22:26;7.80;;;2.83;;
67712;SDS011;67640;55.784;49.138;2023-05-14T11:27:33;7.13;;;1.70;;
67712;SDS011;67640;55.784;49.138;2023-05-14T11:32:38;6.37;;;1.52;;
67712;SDS011;67640;55.784;49.138;2023-05-14T11:37:58;3.90;;;1.50;;
67712;SDS011;67640;55.784;49.138;2023-05-14T11:43:03;6.47;;;1.70;;
67712;SDS011;67640;55.784;49.138;2023-05-14T11:48:25;4.03;;;1.50;;
67712;SDS011;67640;55.784;49.138;2023-05-14T11:53:44;3.77;;;1.80;;
67712;SDS011;67640;55.784;49.138;2023-05-14T11:59:03;4.20;;;1.40;;
67712;SDS011;67640;55.784;49.138;2023-05-14T12:09:49;6.37;;;2.00;;
67712;SDS011;67640;55.784;49.138;2023-05-14T12:14:54;7.12;;;1.70;;
67712;SDS011;67640;55.784;49.138;2023-05-14T12:19:59;5.05;;;2.10;;
67712;SDS011;67640;55.784;49.138;2023-05-14T12:25:19;5.90;;;2.40;;
67712;SDS011;67640;55.784;49.138;2023-05-14T12:30:43;7.00;;;3.10;;
67712;SDS011;67640;55.784;49.138;2023-05-14T12:36:03;6.10;;;2.98;;
67712;SDS011;67640;55.784;49.138;2023-05-14T12:41:08;4.83;;;2.17;;
67712;SDS011;67640;55.784;49.138;2023-05-14T12:46:28;5.22;;;2.00;;
67712;SDS011;67640;55.784;49.138;2023-05-14T12:51:47;7.90;;;2.60;;
67712;SDS011;67640;55.784;49.138;2023-05-14T12:57:06;5.20;;;2.20;;
67712;SDS011;67640;55.784;49.138;2023-05-14T13:02:25;4.50;;;2.10;;
67712;SDS011;67640;55.784;49.138;2023-05-14T13:07:30;6.20;;;2.50;;
67712;SDS011;67640;55.784;49.138;2023-05-14T13:12:35;6.08;;;2.50;;
67712;SDS011;67640;55.784;49.138;2023-05-14T13:17:41;5.60;;;2.37;;
67712;SDS011;67640;55.784;49.138;2023-05-14T13:22:46;5.40;;;2.43;;
67712;SDS011;67640;55.784;49.138;2023-05-14T13:28:06;7.78;;;2.40;;
67712;SDS011;67640;55.784;49.138;2023-05-14T13:33:10;5.20;;;2.50;;
67712;SDS011;67640;55.784;49.138;2023-05-14T13:38:32;5.92;;;2.22;;
67712;SDS011;67640;55.784;49.138;2023-05-14T13:43:53;5.92;;;2.20;;
67712;SDS011;67640;55.784;49.138;2023-05-14T13:49:12;6.00;;;2.80;;
67712;SDS011;67640;55.784;49.138;2023-05-14T13:54:18;7.60;;;3.30;;
67712;SDS011;67640;55.784;49.138;2023-05-14T13:59:23;8.18;;;3.15;;
67712;SDS011;67640;55.784;49.138;2023-05-14T14:04:30;7.63;;;2.70;;
67712;SDS011;67640;55.784;49.138;2023-05-14T14:10:04;4.77;;;2.20;;
67712;SDS011;67640;55.784;49.138;2023-05-14T14:15:10;3.98;;;1.90;;
67712;SDS011;67640;55.784;49.138;2023-05-14T14:20:16;6.67;;;2.03;;
67712;SDS011;67640;55.784;49.138;2023-05-14T14:25:35;5.30;;;2.22;;
67712;SDS011;67640;55.784;49.138;2023-05-14T14:30:54;5.37;;;2.15;;
67712;SDS011;67640;55.784;49.138;2023-05-14T14:36:33;5.43;;;2.30;;
67712;SDS011;67640;55.784;49.138;2023-05-14T14:41:41;5.47;;;2.02;;
67712;SDS011;67640;55.784;49.138;2023-05-14T14:47:00;6.95;;;2.42;;
67712;SDS011;67640;55.784;49.138;2023-05-14T14:52:27;4.55;;;2.15;;
67712;SDS011;67640;55.784;49.138;2023-05-14T14:57:32;7.73;;;2.30;;
67712;SDS011;67640;55.784;49.138;2023-05-14T15:03:14;6.53;;;2.52;;
67712;SDS011;67640;55.784;49.138;2023-05-14T15:08:54;6.85;;;2.85;;
67712;SDS011;67640;55.784;49.138;2023-05-14T15:13:59;8.77;;;3.20;;
67712;SDS011;67640;55.784;49.138;2023-05-14T15:19:19;8.33;;;2.90;;
67712;SDS011;67640;55.784;49.138;2023-05-14T15:24:24;6.50;;;3.00;;
67712;SDS011;67640;55.784;49.138;2023-05-14T15:29:43;7.03;;;2.90;;
67712;SDS011;67640;55.784;49.138;2023-05-14T15:35:02;5.70;;;2.63;;
67712;SDS011;67640;55.784;49.138;2023-05-14T15:40:09;6.05;;;2.90;;
67712;SDS011;67640;55.784;49.138;2023-05-14T15:45:28;5.60;;;2.90;;
67712;SDS011;67640;55.784;49.138;2023-05-14T15:50:34;6.40;;;2.80;;
67712;SDS011;67640;55.784;49.138;2023-05-14T15:56:01;7.90;;;3.37;;
67712;SDS011;67640;55.784;49.138;2023-05-14T16:01:06;9.40;;;4.20;;
67712;SDS011;67640;55.784;49.138;2023-05-14T16:06:12;11.33;;;3.97;;
67712;SDS011;67640;55.784;49.138;2023-05-14T16:11:32;6.30;;;3.00;;
67712;SDS011;67640;55.784;49.138;2023-05-14T16:17:00;8.40;;;2.72;;
67712;SDS011;67640;55.784;49.138;2023-05-14T16:22:05;8.13;;;3.10;;
67712;SDS011;67640;55.784;49.138;2023-05-14T16:27:25;6.93;;;2.67;;
67712;SDS011;67640;55.784;49.138;2023-05-14T16:32:30;6.20;;;2.45;;
67712;SDS011;67640;55.784;49.138;2023-05-14T16:37:36;8.43;;;2.10;;
67712;SDS011;67640;55.784;49.138;2023-05-14T16:42:55;4.67;;;2.03;;
67712;SDS011;67640;55.784;49.138;2023-05-14T16:48:02;10.78;;;2.20;;
67712;SDS011;67640;55.784;49.138;2023-05-14T16:53:21;5.40;;;1.93;;
67712;SDS011;67640;55.784;49.138;2023-05-14T16:58:27;4.42;;;1.67;;
67712;SDS011;67640;55.784;49.138;2023-05-14T17:03:45;5.60;;;2.25;;
67712;SDS011;67640;55.784;49.138;2023-05-14T17:08:50;5.17;;;2.00;;
67712;SDS011;67640;55.784;49.138;2023-05-14T17:14:10;4.30;;;1.83;;
67712;SDS011;67640;55.784;49.138;2023-05-14T17:19:29;7.70;;;1.87;;
67712;SDS011;67640;55.784;49.138;2023-05-14T17:24:48;4.47;;;1.50;;
67712;SDS011;67640;55.784;49.138;2023-05-14T17:30:07;4.17;;;1.80;;
67712;SDS011;67640;55.784;49.138;2023-05-14T17:35:14;4.85;;;1.30;;
67712;SDS011;67640;55.784;49.138;2023-05-14T17:40:32;4.43;;;1.80;;
67712;SDS011;67640;55.784;49.138;2023-05-14T17:45:38;4.60;;;1.60;;
67712;SDS011;67640;55.784;49.138;2023-05-14T17:50:43;5.53;;;1.65;;
67712;SDS011;67640;55.784;49.138;2023-05-14T17:56:05;4.93;;;1.87;;
67712;SDS011;67640;55.784;49.138;2023-05-14T18:01:10;4.83;;;1.80;;
67712;SDS011;67640;55.784;49.138;2023-05-14T18:06:36;6.80;;;1.57;;
67712;SDS011;67640;55.784;49.138;2023-05-14T18:11:41;5.27;;;2.00;;
67712;SDS011;67640;55.784;49.138;2023-05-14T18:16:47;5.58;;;2.00;;
67712;SDS011;67640;55.784;49.138;2023-05-14T18:22:08;8.90;;;2.80;;
67712;SDS011;67640;55.784;49.138;2023-05-14T18:27:13;7.80;;;2.70;;
67712;SDS011;67640;55.784;49.138;2023-05-14T18:32:32;5.92;;;2.20;;
67712;SDS011;67640;55.784;49.138;2023-05-14T18:37:38;6.87;;;2.20;;
67712;SDS011;67640;55.784;49.138;2023-05-14T18:42:57;7.53;;;2.40;;
67712;SDS011;67640;55.784;49.138;2023-05-14T18:48:16;5.58;;;2.17;;
67712;SDS011;67640;55.784;49.138;2023-05-14T18:53:35;4.23;;;1.70;;
67712;SDS011;67640;55.784;49.138;2023-05-14T18:58:40;5.47;;;2.30;;
67712;SDS011;67640;55.784;49.138;2023-05-14T19:03:59;7.85;;;3.00;;
67712;SDS011;67640;55.784;49.138;2023-05-14T19:09:19;7.42;;;2.77;;
67712;SDS011;67640;55.784;49.138;2023-05-14T19:14:25;10.30;;;3.13;;
67712;SDS011;67640;55.784;49.138;2023-05-14T19:19:30;8.70;;;3.12;;
67712;SDS011;67640;55.784;49.138;2023-05-14T19:24:49;7.40;;;2.87;;
67712;SDS011;67640;55.784;49.138;2023-05-14T19:30:08;9.30;;;2.75;;
67712;SDS011;67640;55.784;49.138;2023-05-14T19:35:27;6.83;;;2.55;;
67712;SDS011;67640;55.784;49.138;2023-05-14T19:40:47;9.00;;;2.50;;
67712;SDS011;67640;55.784;49.138;2023-05-14T19:45:57;6.95;;;2.10;;
67712;SDS011;67640;55.784;49.138;2023-05-14T19:51:02;8.13;;;2.23;;
67712;SDS011;67640;55.784;49.138;2023-05-14T19:56:21;5.62;;;1.80;;
67712;SDS011;67640;55.784;49.138;2023-05-14T20:01:46;5.12;;;1.60;;
67712;SDS011;67640;55.784;49.138;2023-05-14T20:07:05;4.43;;;1.20;;
67712;SDS011;67640;55.784;49.138;2023-05-14T20:12:25;4.65;;;1.30;;
67712;SDS011;67640;55.784;49.138;2023-05-14T20:17:44;5.07;;;1.20;;
67712;SDS011;67640;55.784;49.138;2023-05-14T20:22:51;5.12;;;1.27;;
67712;SDS011;67640;55.784;49.138;2023-05-14T20:27:56;4.42;;;1.40;;
67712;SDS011;67640;55.784;49.138;2023-05-14T20:33:15;6.37;;;1.57;;
67712;SDS011;67640;55.784;49.138;2023-05-14T20:38:21;6.95;;;1.60;;
67712;SDS011;67640;55.784;49.138;2023-05-14T20:43:40;6.30;;;1.90;;
67712;SDS011;67640;55.784;49.138;2023-05-14T20:48:59;6.50;;;2.13;;
67712;SDS011;67640;55.784;49.138;2023-05-14T20:54:18;6.20;;;1.82;;
67712;SDS011;67640;55.784;49.138;2023-05-14T20:59:37;5.33;;;2.00;;
67712;SDS011;67640;55.784;49.138;2023-05-14T21:04:42;5.35;;;1.87;;
67712;SDS011;67640;55.784;49.138;2023-05-14T21:10:02;4.03;;;1.60;;
67712;SDS011;67640;55.784;49.138;2023-05-14T21:15:23;3.60;;;1.40;;
67712;SDS011;67640;55.784;49.138;2023-05-14T21:20:28;7.87;;;1.47;;
67712;SDS011;67640;55.784;49.138;2023-05-14T21:25:47;3.02;;;1.12;;
67712;SDS011;67640;55.784;49.138;2023-05-14T21:31:10;14.23;;;1.00;;
67712;SDS011;67640;55.784;49.138;2023-05-14T21:36:16;4.43;;;0.90;;
67712;SDS011;67640;55.784;49.138;2023-05-14T21:41:23;3.25;;;0.90;;
67712;SDS011;67640;55.784;49.138;2023-05-14T21:46:42;3.00;;;0.83;;
67712;SDS011;67640;55.784;49.138;2023-05-14T21:52:01;3.10;;;1.07;;
67712;SDS011;67640;55.784;49.138;2023-05-14T21:57:06;3.30;;;0.82;;
67712;SDS011;67640;55.784;49.138;2023-05-14T22:02:25;2.47;;;0.70;;
67712;SDS011;67640;55.784;49.138;2023-05-14T22:07:35;3.63;;;1.03;;
67712;SDS011;67640;55.784;49.138;2023-05-14T22:12:54;11.40;;;1.00;;
67712;SDS011;67640;55.784;49.138;2023-05-14T22:18:13;2.40;;;1.00;;
67712;SDS011;67640;55.784;49.138;2023-05-14T22:23:19;3.75;;;0.90;;
67712;SDS011;67640;55.784;49.138;2023-05-14T22:28:38;3.40;;;0.95;;
67712;SDS011;67640;55.784;49.138;2023-05-14T22:34:06;4.63;;;0.77;;
67712;SDS011;67640;55.784;49.138;2023-05-14T22:39:11;3.12;;;0.80;;
67712;SDS011;67640;55.784;49.138;2023-05-14T22:44:30;3.25;;;0.82;;
67712;SDS011;67640;55.784;49.138;2023-05-14T22:49:49;3.83;;;1.30;;
67712;SDS011;67640;55.784;49.138;2023-05-14T22:55:09;2.98;;;0.60;;
67712;SDS011;67640;55.784;49.138;2023-05-14T23:00:28;3.67;;;0.80;;
67712;SDS011;67640;55.784;49.138;2023-05-14T23:05:47;4.42;;;0.90;;
67712;SDS011;67640;55.784;49.138;2023-05-14T23:10:52;2.22;;;0.62;;
67712;SDS011;67640;55.784;49.138;2023-05-14T23:16:12;3.40;;;0.62;;
67712;SDS011;67640;55.784;49.138;2023-05-14T23:21:17;1.37;;;0.50;;
67712;SDS011;67640;55.784;49.138;2023-05-14T23:26:36;1.90;;;0.50;;
67712;SDS011;67640;55.784;49.138;2023-05-14T23:31:55;3.17;;;0.40;;
67712;SDS011;67640;55.784;49.138;2023-05-14T23:37:00;2.12;;;0.70;;
67712;SDS011;67640;55.784;49.138;2023-05-14T23:42:22;2.98;;;0.60;;
67712;SDS011;67640;55.784;49.138;2023-05-14T23:47:28;4.47;;;0.50;;
67712;SDS011;67640;55.784;49.138;2023-05-14T23:52:47;3.17;;;0.60;;
67712;SDS011;67640;55.784;49.138;2023-05-14T23:57:52;2.45;;;0.70;;
